Aviation Digital Data Service (ADDS)

Output produced by METARs form (0656 UTC 20 March 2019)
found at http://www.aviationweather.gov/metar/data/
 
Forecast for: KAMA (AMARILLO , TX, US)
Text: KAMA 200539Z 2006/2106 04007KT 6SM -SHRA OVC060
Forecast period: 0600 to 1100 UTC 20 March 2019
Forecast type: FROM: standard forecast or significant change
Winds: from the NE (40 degrees) at 8 MPH (7 knots; 3.6 m/s)
Visibility: 6 miles (10 km)
Ceiling: 6000 feet AGL
Clouds: overcast cloud deck at 6000 feet AGL
Weather: -SHRA  (light rain showers)
Text: FM201100 01005KT P6SM VCSH BKN050
Forecast period: 1100 to 1400 UTC 20 March 2019
Forecast type: FROM: standard forecast or significant change
Winds: from the N (10 degrees) at 6 MPH (5 knots; 2.6 m/s)
Visibility: 6 or more miles 10+ km)
Ceiling: 5000 feet AGL
Clouds: broken clouds at 5000 feet AGL
Weather: VCSH  (showers in vicinity)
Text: FM201400 VRB04KT P6SM SCT110
Forecast period: 1400 UTC 20 March 2019 to 0600 UTC 21 March 2019
Forecast type: FROM: standard forecast or significant change
Winds: variable direction winds at 5 MPH (4 knots; 2.1 m/s)
Visibility: 6 or more miles 10+ km)
Ceiling: at least 12,000 feet AGL
Clouds: scattered clouds at 11000 feet AGL
Weather: no significant weather forecast for this period